createdAt,value
2023-05-24T00:02:07.827Z,101358.03
2023-05-24T00:04:34.358Z,101358.03
2023-05-24T00:07:03.429Z,101360.16
2023-05-24T00:09:30.572Z,101362.31
2023-05-24T00:11:56.954Z,101370.97
2023-05-24T00:14:23.341Z,101355.81
2023-05-24T00:16:49.777Z,101361.56
2023-05-24T00:19:18.529Z,101369.50
2023-05-24T00:21:45.772Z,101367.97
2023-05-24T00:24:12.241Z,101373.00
2023-05-24T00:26:38.662Z,101373.00
2023-05-24T00:29:05.278Z,101362.22
2023-05-24T00:31:31.751Z,101370.13
2023-05-24T00:33:58.211Z,101366.50
2023-05-24T00:36:24.604Z,101360.75
2023-05-24T00:38:51.066Z,101362.22
2023-05-24T00:41:17.471Z,101360.75
2023-05-24T00:43:44.277Z,101359.22
2023-05-24T00:46:16.509Z,101360.75
2023-05-24T00:48:42.937Z,101356.25
2023-05-24T00:51:09.359Z,101362.22
2023-05-24T00:53:35.865Z,101359.22
2023-05-24T00:56:02.741Z,101367.25
2023-05-24T00:58:31.102Z,101365.75
2023-05-24T01:00:59.714Z,101362.00
2023-05-24T01:03:29.257Z,101365.00
2023-05-24T01:05:57.042Z,101360.53
2023-05-24T01:08:35.004Z,101364.16
2023-05-24T01:11:20.261Z,101362.00
2023-05-24T01:13:49.361Z,101362.00
2023-05-24T01:16:17.976Z,101354.03
2023-05-24T01:18:45.832Z,101360.53
2023-05-24T01:21:12.146Z,101359.78
2023-05-24T01:23:57.484Z,101370.56
2023-05-24T01:26:29.038Z,101364.06
2023-05-24T01:28:55.477Z,101369.09
2023-05-24T01:31:21.872Z,101364.06
2023-05-24T01:33:49.294Z,101371.97
2023-05-24T01:36:19.072Z,101373.38
2023-05-24T01:38:45.493Z,101367.59
2023-05-24T01:41:16.751Z,101371.97
2023-05-24T01:43:48.820Z,101372.59
2023-05-24T01:46:15.475Z,101363.22
2023-05-24T01:48:52.684Z,101366.09
2023-05-24T01:51:19.324Z,101374.75
2023-05-24T01:53:47.029Z,101365.38
2023-05-24T01:56:13.507Z,101373.38
2023-05-24T01:58:41.000Z,101366.09
2023-05-24T02:01:07.982Z,101364.63
2023-05-24T02:03:34.448Z,101368.88
2023-05-24T02:06:02.072Z,101363.13
2023-05-24T02:08:28.470Z,101362.38
2023-05-24T02:10:54.872Z,101368.88
2023-05-24T02:13:21.429Z,101364.53
2023-05-24T02:15:48.034Z,101364.53
2023-05-24T02:18:14.539Z,101367.41
2023-05-24T02:20:42.086Z,101371.66
2023-05-24T02:23:08.676Z,101377.44
2023-05-24T02:25:36.780Z,101376.69
2023-05-24T02:28:03.290Z,101371.66
2023-05-24T02:30:29.902Z,101369.44
2023-05-24T02:32:56.393Z,101370.19
2023-05-24T02:35:22.793Z,101370.19
2023-05-24T02:37:49.180Z,101367.94
2023-05-24T02:40:15.807Z,101362.91
2023-05-24T02:42:42.191Z,101363.69
2023-05-24T02:45:08.759Z,101367.19
2023-05-24T02:47:35.163Z,101368.69
2023-05-24T02:50:01.576Z,101373.72
2023-05-24T02:52:27.967Z,101361.44
2023-05-24T02:54:54.350Z,101365.69
2023-05-24T02:57:21.760Z,101371.47
2023-05-24T02:59:48.276Z,101370.72
2023-05-24T03:02:14.883Z,101362.81
2023-05-24T03:04:41.642Z,101364.22
2023-05-24T03:07:11.168Z,101369.97
2023-05-24T03:09:37.584Z,101369.25
2023-05-24T03:12:04.744Z,101368.50
2023-05-24T03:14:33.210Z,101365.63
2023-05-24T03:17:00.020Z,101373.50
2023-05-24T03:19:26.670Z,101362.75
2023-05-24T03:21:53.312Z,101367.00
2023-05-24T03:24:20.656Z,101368.41
2023-05-24T03:26:47.186Z,101371.28
2023-05-24T03:29:13.585Z,101373.50
2023-05-24T03:31:42.179Z,101379.94
2023-05-24T03:34:08.860Z,101364.00
2023-05-24T03:36:37.693Z,101368.41
2023-05-24T03:39:04.623Z,101382.81
2023-05-24T03:41:36.706Z,101385.03
2023-05-24T03:44:03.142Z,101376.28
2023-05-24T03:46:30.932Z,101387.81
2023-05-24T03:48:57.387Z,101387.06
2023-05-24T03:51:29.340Z,101392.84
2023-05-24T03:53:57.133Z,101392.09
2023-05-24T03:56:26.536Z,101398.59
2023-05-24T03:58:52.952Z,101392.84
2023-05-24T04:01:32.742Z,101392.84
2023-05-24T04:04:01.348Z,101398.59
2023-05-24T04:06:29.344Z,101397.13
2023-05-24T04:08:57.337Z,101400.75
2023-05-24T04:11:24.169Z,101400.63
2023-05-24T04:13:51.370Z,101399.91
2023-05-24T04:16:17.775Z,101402.78
2023-05-24T04:18:45.398Z,101394.88
2023-05-24T04:21:11.915Z,101404.16
2023-05-24T04:23:38.330Z,101408.53
2023-05-24T04:26:04.902Z,101409.91
2023-05-24T04:28:31.768Z,101400.53
2023-05-24T04:30:59.165Z,101413.47
2023-05-24T04:33:26.111Z,101426.47
2023-05-24T04:35:53.358Z,101413.47
2023-05-24T04:38:21.846Z,101412.63
2023-05-24T04:40:48.962Z,101421.38
2023-05-24T04:43:15.325Z,101421.38
2023-05-24T04:45:41.853Z,101419.13
2023-05-24T04:48:08.322Z,101425.63
2023-05-24T04:50:37.036Z,101419.88
2023-05-24T04:53:04.015Z,101428.50
2023-05-24T04:55:30.449Z,101434.28
2023-05-24T04:57:57.549Z,101438.56
2023-05-24T05:00:23.961Z,101438.56
2023-05-24T05:02:50.480Z,101442.81
2023-05-24T05:05:16.972Z,101445.06
2023-05-24T05:07:43.373Z,101442.81
2023-05-24T05:10:09.812Z,101449.31
2023-05-24T05:12:36.225Z,101452.44
2023-05-24T05:15:03.062Z,101458.19
2023-05-24T05:17:29.530Z,101461.38
2023-05-24T05:19:56.022Z,101450.00
2023-05-24T05:22:22.422Z,101456.53
2023-05-24T05:24:48.806Z,101452.91
2023-05-24T05:27:15.209Z,101455.63
2023-05-24T05:29:41.735Z,101448.38
2023-05-24T05:32:08.164Z,101456.72
2023-05-24T05:34:34.585Z,101453.28
2023-05-24T05:37:01.043Z,101460.66
2023-05-24T05:39:27.448Z,101462.88
2023-05-24T05:41:53.864Z,101457.22
2023-05-24T05:44:20.422Z,101467.38
2023-05-24T05:46:46.806Z,101460.22
2023-05-24T05:49:14.623Z,101463.09
2023-05-24T05:51:41.073Z,101472.47
2023-05-24T05:54:14.153Z,101471.84
2023-05-24T05:56:45.414Z,101478.91
2023-05-24T05:59:11.968Z,101481.66
2023-05-24T06:01:38.851Z,101483.91
2023-05-24T06:04:05.325Z,101485.19
2023-05-24T06:06:33.101Z,101489.97
2023-05-24T06:09:00.340Z,101490.72
2023-05-24T06:11:27.022Z,101498.72
2023-05-24T06:13:53.552Z,101495.75
2023-05-24T06:16:21.149Z,101501.50
2023-05-24T06:19:01.393Z,101505.78
2023-05-24T06:21:32.219Z,101505.78
2023-05-24T06:23:59.704Z,101507.78
2023-05-24T06:26:26.988Z,101513.88
2023-05-24T06:28:53.373Z,101518.25
2023-05-24T06:31:19.827Z,101512.81
2023-05-24T06:33:52.456Z,101514.84
2023-05-24T06:36:28.758Z,101510.59
2023-05-24T06:38:55.187Z,101523.56
2023-05-24T06:41:22.758Z,101514.81
2023-05-24T06:43:49.615Z,101511.19
2023-05-24T06:46:16.426Z,101515.69
2023-05-24T06:48:43.183Z,101519.38
2023-05-24T06:51:09.773Z,101521.13
2023-05-24T06:53:36.384Z,101527.44
2023-05-24T06:56:02.808Z,101528.25
2023-05-24T06:58:29.212Z,101535.22
2023-05-24T07:00:56.071Z,101537.66
2023-05-24T07:03:23.403Z,101540.44
2023-05-24T07:05:49.882Z,101534.34
2023-05-24T07:08:16.562Z,101536.69
2023-05-24T07:10:44.406Z,101536.19
2023-05-24T07:13:13.471Z,101532.88
2023-05-24T07:15:42.926Z,101528.34
2023-05-24T07:18:09.436Z,101535.81
2023-05-24T07:20:36.113Z,101535.28
2023-05-24T07:23:03.797Z,101551.28
2023-05-24T07:25:30.430Z,101542.75
2023-05-24T07:27:56.922Z,101557.28
2023-05-24T07:30:31.700Z,101553.75
2023-05-24T07:32:58.919Z,101556.63
2023-05-24T07:35:25.363Z,101561.13
2023-05-24T07:37:51.801Z,101559.72
2023-05-24T07:40:18.197Z,101567.00
2023-05-24T07:42:44.856Z,101572.09
2023-05-24T07:45:11.274Z,101572.88
2023-05-24T07:47:38.488Z,101571.47
2023-05-24T07:50:05.208Z,101579.47
2023-05-24T07:52:31.693Z,101578.72
2023-05-24T07:54:58.115Z,101580.97
2023-05-24T07:57:24.803Z,101570.19
2023-05-24T07:59:51.231Z,101587.47
2023-05-24T08:02:18.007Z,101587.56
2023-05-24T08:04:44.476Z,101581.81
2023-05-24T08:07:11.167Z,101584.69
2023-05-24T08:09:38.344Z,101596.97
2023-05-24T08:12:07.093Z,101590.44
2023-05-24T08:14:33.527Z,101591.97
2023-05-24T08:17:00.820Z,101601.97
2023-05-24T08:19:27.616Z,101596.22
2023-05-24T08:21:55.507Z,101599.22
2023-05-24T08:24:22.747Z,101598.47
2023-05-24T08:26:49.860Z,101604.97
2023-05-24T08:29:17.540Z,101604.97
2023-05-24T08:31:44.421Z,101602.84
2023-05-24T08:34:11.388Z,101603.59
2023-05-24T08:36:39.089Z,101607.97
2023-05-24T08:39:05.500Z,101608.72
2023-05-24T08:41:37.312Z,101609.47
2023-05-24T08:44:05.164Z,101615.25
2023-05-24T08:46:31.731Z,101599.44
2023-05-24T08:48:58.260Z,101608.06
2023-05-24T08:51:24.739Z,101611.69
2023-05-24T08:53:51.172Z,101609.56
2023-05-24T08:56:17.927Z,101611.69
2023-05-24T08:58:44.451Z,101617.47
2023-05-24T09:01:11.493Z,101621.97
2023-05-24T09:03:38.077Z,101614.19
2023-05-24T09:06:04.691Z,101621.44
2023-05-24T09:08:33.489Z,101622.94
2023-05-24T09:11:00.107Z,101619.94
2023-05-24T09:13:27.302Z,101633.81
2023-05-24T09:15:53.907Z,101630.19
2023-05-24T09:18:20.392Z,101631.59
2023-05-24T09:20:47.051Z,101630.19
2023-05-24T09:23:14.602Z,101630.19
2023-05-24T09:25:44.193Z,101635.09
2023-05-24T09:28:10.702Z,101628.91
2023-05-24T09:30:37.207Z,101628.69
2023-05-24T09:33:05.497Z,101619.41
2023-05-24T09:35:32.274Z,101619.84
2023-05-24T09:38:00.378Z,101621.66
2023-05-24T09:40:26.942Z,101616.63
2023-05-24T09:43:02.596Z,101623.03
2023-05-24T09:45:29.000Z,101628.69
2023-05-24T09:47:55.427Z,101627.41
2023-05-24T09:50:22.750Z,101624.41
2023-05-24T09:52:49.429Z,101630.41
2023-05-24T09:55:16.248Z,101634.66
2023-05-24T09:57:53.163Z,101633.28
2023-05-24T10:00:23.256Z,101636.19
2023-05-24T10:03:03.013Z,101636.19
2023-05-24T10:05:29.637Z,101631.91
2023-05-24T10:07:56.781Z,101634.78
2023-05-24T10:10:23.176Z,101638.41
2023-05-24T10:12:49.563Z,101639.16
2023-05-24T10:15:15.956Z,101634.78
2023-05-24T10:17:42.385Z,101637.66
2023-05-24T10:20:09.957Z,101642.03
2023-05-24T10:22:37.481Z,101644.94
2023-05-24T10:25:04.602Z,101646.41
2023-05-24T10:27:31.601Z,101642.16
2023-05-24T10:29:59.222Z,101638.50
2023-05-24T10:32:25.751Z,101636.41
2023-05-24T10:34:53.634Z,101637.91
2023-05-24T10:37:20.031Z,101636.53
2023-05-24T10:39:46.613Z,101635.13
2023-05-24T10:42:13.587Z,101643.91
2023-05-24T10:44:40.075Z,101651.81
2023-05-24T10:47:13.252Z,101643.91
2023-05-24T10:49:47.267Z,101648.91
2023-05-24T10:52:13.743Z,101652.53
2023-05-24T10:54:47.024Z,101643.91
2023-05-24T10:57:25.628Z,101648.91
2023-05-24T10:59:52.243Z,101646.78
2023-05-24T11:02:19.118Z,101651.16
2023-05-24T11:04:46.245Z,101643.91
2023-05-24T11:07:14.470Z,101647.53
2023-05-24T11:09:46.907Z,101651.16
2023-05-24T11:12:17.757Z,101646.91
2023-05-24T11:14:47.439Z,101649.78
2023-05-24T11:17:13.853Z,101651.25
2023-05-24T11:19:47.450Z,101648.38
2023-05-24T11:22:13.994Z,101646.91
2023-05-24T11:24:40.619Z,101644.75
2023-05-24T11:27:07.037Z,101652.66
2023-05-24T11:29:34.834Z,101656.28
2023-05-24T11:32:04.887Z,101659.16
2023-05-24T11:34:32.125Z,101656.16
2023-05-24T11:36:59.124Z,101656.91
2023-05-24T11:39:28.848Z,101656.91
2023-05-24T11:41:55.311Z,101653.91
2023-05-24T11:44:21.758Z,101648.16
2023-05-24T11:46:48.224Z,101648.25
2023-05-24T11:49:17.367Z,101651.16
2023-05-24T11:51:53.395Z,101651.94
2023-05-24T11:54:19.781Z,101656.84
2023-05-24T11:56:46.367Z,101647.81
2023-05-24T11:59:16.701Z,101659.59
2023-05-24T12:01:43.206Z,101666.94
2023-05-24T12:04:10.044Z,101661.19
2023-05-24T12:06:37.556Z,101660.97
2023-05-24T12:09:05.932Z,101665.56
2023-05-24T12:11:32.424Z,101669.41
2023-05-24T12:13:59.096Z,101665.16
2023-05-24T12:16:26.615Z,101666.63
2023-05-24T12:19:03.040Z,101663.00
2023-05-24T12:21:33.115Z,101670.25
2023-05-24T12:24:09.726Z,101661.63
2023-05-24T12:26:36.840Z,101657.38
2023-05-24T12:29:03.261Z,101655.34
2023-05-24T12:31:29.701Z,101654.59
2023-05-24T12:33:56.447Z,101660.25
2023-05-24T12:36:23.224Z,101663.13
2023-05-24T12:38:49.612Z,101660.88
2023-05-24T12:41:16.015Z,101663.88
2023-05-24T12:43:44.292Z,101657.25
2023-05-24T12:46:11.345Z,101660.13
2023-05-24T12:48:37.732Z,101667.38
2023-05-24T12:51:04.609Z,101666.63
2023-05-24T12:53:31.039Z,101666.63
2023-05-24T12:55:57.438Z,101681.03
2023-05-24T12:58:23.927Z,101675.94
2023-05-24T13:00:51.874Z,101678.16
2023-05-24T13:03:18.378Z,101683.19
2023-05-24T13:05:45.964Z,101675.94
2023-05-24T13:08:12.450Z,101673.81
2023-05-24T13:10:38.876Z,101674.53
2023-05-24T13:13:05.265Z,101674.53
2023-05-24T13:15:31.648Z,101673.06
2023-05-24T13:17:58.179Z,101673.06
2023-05-24T13:20:24.745Z,101673.06
2023-05-24T13:22:51.296Z,101673.06
2023-05-24T13:25:17.685Z,101674.44
2023-05-24T13:27:44.070Z,101677.09
2023-05-24T13:30:10.703Z,101675.81
2023-05-24T13:32:39.724Z,101674.44
2023-05-24T13:35:08.595Z,101678.91
2023-05-24T13:37:35.176Z,101674.53
2023-05-24T13:40:01.604Z,101676.78
2023-05-24T13:42:28.214Z,101668.16
2023-05-24T13:44:56.174Z,101682.66
2023-05-24T13:47:35.183Z,101681.91
2023-05-24T13:50:05.538Z,101679.78
2023-05-24T13:52:32.839Z,101681.91
2023-05-24T13:54:59.268Z,101677.66
2023-05-24T13:57:31.350Z,101681.91
2023-05-24T14:00:06.544Z,101664.63
2023-05-24T14:02:33.279Z,101673.13
2023-05-24T14:05:09.772Z,101681.16
2023-05-24T14:07:46.162Z,101670.38
2023-05-24T14:10:12.819Z,101676.13
2023-05-24T14:12:39.200Z,101681.91
2023-05-24T14:15:06.443Z,101669.63
2023-05-24T14:17:32.909Z,101669.63
2023-05-24T14:19:59.347Z,101671.88
2023-05-24T14:22:26.314Z,101670.38
2023-05-24T14:24:52.891Z,101671.16
2023-05-24T14:27:19.291Z,101667.50
2023-05-24T14:29:47.261Z,101663.13
2023-05-24T14:32:13.762Z,101669.75
2023-05-24T14:34:40.166Z,101667.72
2023-05-24T14:37:07.329Z,101670.59
2023-05-24T14:39:33.725Z,101662.69
2023-05-24T14:42:00.140Z,101669.22
2023-05-24T14:44:27.932Z,101668.47
2023-05-24T14:46:55.625Z,101670.59
2023-05-24T14:49:22.136Z,101677.88
2023-05-24T14:51:49.389Z,101677.09
2023-05-24T14:54:16.547Z,101675.00
2023-05-24T14:56:42.918Z,101669.31
2023-05-24T14:59:09.304Z,101669.31
2023-05-24T15:01:36.718Z,101670.94
2023-05-24T15:04:03.623Z,101666.66
2023-05-24T15:06:34.746Z,101664.50
2023-05-24T15:09:02.483Z,101669.66
2023-05-24T15:11:29.224Z,101665.47
2023-05-24T15:13:58.650Z,101671.25
2023-05-24T15:16:25.253Z,101670.72
2023-05-24T15:18:51.674Z,101670.00
2023-05-24T15:21:18.494Z,101668.69
2023-05-24T15:23:44.914Z,101674.56
2023-05-24T15:26:11.657Z,101671.69
2023-05-24T15:28:38.054Z,101664.56
2023-05-24T15:31:04.479Z,101668.06
2023-05-24T15:33:31.099Z,101668.19
2023-05-24T15:35:57.583Z,101665.94
2023-05-24T15:38:24.640Z,101669.66
2023-05-24T15:40:51.288Z,101670.41
2023-05-24T15:43:17.929Z,101664.00
2023-05-24T15:45:44.579Z,101671.91
2023-05-24T15:48:11.057Z,101668.91
2023-05-24T15:53:11.143Z,101663.59
2023-05-24T15:55:38.649Z,101666.38
2023-05-24T15:58:05.068Z,101657.84
2023-05-24T16:00:31.473Z,101667.97
2023-05-24T16:02:58.031Z,101664.22
2023-05-24T16:05:24.552Z,101667.13
2023-05-24T16:07:50.975Z,101657.84
2023-05-24T16:10:17.383Z,101668.06
2023-05-24T16:12:43.770Z,101661.66
2023-05-24T16:15:10.271Z,101665.19
2023-05-24T16:17:36.741Z,101673.41
2023-05-24T16:20:03.571Z,101670.22
2023-05-24T16:22:30.071Z,101666.66
2023-05-24T16:24:56.491Z,101669.25
2023-05-24T16:27:22.928Z,101666.78
2023-05-24T16:29:49.356Z,101666.13
2023-05-24T16:32:15.991Z,101666.25
2023-05-24T16:34:55.951Z,101664.84
2023-05-24T16:37:22.860Z,101668.28
2023-05-24T16:39:49.298Z,101664.22
2023-05-24T16:42:15.686Z,101668.47
2023-05-24T16:44:42.091Z,101661.97
2023-05-24T16:47:08.612Z,101665.69
2023-05-24T16:49:35.053Z,101655.47
2023-05-24T16:52:02.219Z,101659.72
2023-05-24T16:54:28.625Z,101664.00
2023-05-24T16:56:56.342Z,101664.00
2023-05-24T16:59:22.734Z,101667.63
2023-05-24T17:01:50.658Z,101666.88
2023-05-24T17:04:17.372Z,101661.22
2023-05-24T17:06:43.782Z,101662.59
2023-05-24T17:09:10.214Z,101658.22
2023-05-24T17:11:36.830Z,101658.75
2023-05-24T17:14:04.100Z,101659.28
2023-05-24T17:16:30.787Z,101663.78
2023-05-24T17:18:57.236Z,101669.44
2023-05-24T17:21:27.732Z,101664.44
2023-05-24T17:23:55.082Z,101667.84
2023-05-24T17:26:22.205Z,101666.13
2023-05-24T17:28:48.595Z,101673.06
2023-05-24T17:31:18.103Z,101671.66
2023-05-24T17:33:44.560Z,101677.88
2023-05-24T17:36:11.151Z,101680.34
2023-05-24T17:38:37.814Z,101684.06
2023-05-24T17:41:07.282Z,101683.84
2023-05-24T17:43:33.739Z,101676.38
2023-05-24T17:46:04.043Z,101673.91
2023-05-24T17:48:31.215Z,101676.50
2023-05-24T17:50:58.578Z,101683.66
2023-05-24T17:53:31.717Z,101685.50
2023-05-24T17:55:58.797Z,101691.75
2023-05-24T17:58:25.211Z,101678.47
2023-05-24T18:00:51.729Z,101687.34
2023-05-24T18:03:18.148Z,101692.25
2023-05-24T18:05:44.699Z,101683.94
2023-05-24T18:08:11.135Z,101690.97
2023-05-24T18:10:37.544Z,101694.19
2023-05-24T18:13:06.016Z,101695.06
2023-05-24T18:15:32.409Z,101695.56
2023-05-24T18:17:58.855Z,101697.94
2023-05-24T18:20:25.327Z,101698.44
2023-05-24T18:22:51.814Z,101700.16
2023-05-24T18:25:18.202Z,101699.41
2023-05-24T18:27:44.602Z,101709.00
2023-05-24T18:30:11.294Z,101700.72
2023-05-24T18:32:41.978Z,101705.94
2023-05-24T18:35:12.956Z,101701.69
2023-05-24T18:37:39.355Z,101707.44
2023-05-24T18:40:05.925Z,101708.94
2023-05-24T18:42:32.341Z,101706.69
2023-05-24T18:44:58.707Z,101712.47
2023-05-24T18:47:25.109Z,101714.06
2023-05-24T18:49:51.531Z,101715.44
2023-05-24T18:52:18.610Z,101710.44
2023-05-24T18:54:45.039Z,101709.66
2023-05-24T18:57:11.509Z,101717.56
2023-05-24T18:59:38.719Z,101719.72
2023-05-24T19:02:06.102Z,101729.75
2023-05-24T19:04:32.550Z,101724.00
2023-05-24T19:06:59.022Z,101722.47
2023-05-24T19:09:25.537Z,101721.00
2023-05-24T19:11:52.016Z,101725.34
2023-05-24T19:14:20.526Z,101722.47
2023-05-24T19:16:47.094Z,101726.75
2023-05-24T19:19:13.558Z,101728.88
2023-05-24T19:21:39.948Z,101726.75
2023-05-24T19:24:06.432Z,101731.00
2023-05-24T19:26:32.818Z,101738.28
2023-05-24T19:29:00.470Z,101740.41
2023-05-24T19:31:27.926Z,101744.06
2023-05-24T19:34:00.629Z,101754.06
2023-05-24T19:36:28.341Z,101748.31
2023-05-24T19:38:54.778Z,101746.81
2023-05-24T19:41:21.183Z,101759.84
2023-05-24T19:43:47.600Z,101752.59
2023-05-24T19:46:14.716Z,101755.47
2023-05-24T19:48:42.258Z,101745.31
2023-05-24T19:51:08.676Z,101751.84
2023-05-24T19:53:35.082Z,101756.84
2023-05-24T19:56:01.499Z,101758.34
2023-05-24T19:58:29.699Z,101761.84
2023-05-24T20:00:56.087Z,101759.59
2023-05-24T20:03:22.567Z,101771.91
2023-05-24T20:05:49.034Z,101771.91
2023-05-24T20:08:16.714Z,101766.13
2023-05-24T20:10:43.121Z,101766.88
2023-05-24T20:13:09.599Z,101772.63
2023-05-24T20:15:36.132Z,101766.88
2023-05-24T20:18:02.643Z,101764.00
2023-05-24T20:20:29.153Z,101771.91
2023-05-24T20:22:55.588Z,101772.63
2023-05-24T20:25:21.976Z,101776.91
2023-05-24T20:27:48.375Z,101775.41
2023-05-24T20:30:14.772Z,101775.53
2023-05-24T20:32:41.225Z,101774.00
2023-05-24T20:35:07.952Z,101781.28
2023-05-24T20:37:34.570Z,101783.44
2023-05-24T20:40:01.003Z,101781.16
2023-05-24T20:42:27.387Z,101782.56
2023-05-24T20:44:53.767Z,101779.69
2023-05-24T20:47:20.219Z,101774.66
2023-05-24T20:49:46.610Z,101794.09
2023-05-24T20:52:13.072Z,101783.94
2023-05-24T20:54:39.497Z,101783.94
2023-05-24T20:57:06.199Z,101781.06
2023-05-24T20:59:32.578Z,101778.06
2023-05-24T21:01:59.012Z,101783.81
2023-05-24T21:04:25.449Z,101790.31
2023-05-24T21:06:51.867Z,101785.22
2023-05-24T21:09:18.266Z,101796.75
2023-05-24T21:11:44.656Z,101802.50
2023-05-24T21:14:11.153Z,101802.50
2023-05-24T21:16:37.593Z,101803.88
2023-05-24T21:19:04.030Z,101802.50
2023-05-24T21:21:30.458Z,101805.38
2023-05-24T21:23:57.782Z,101811.78
2023-05-24T21:26:24.269Z,101805.25
2023-05-24T21:28:50.677Z,101811.03
2023-05-24T21:31:17.208Z,101818.16
2023-05-24T21:33:44.135Z,101818.16
2023-05-24T21:36:10.604Z,101825.31
2023-05-24T21:38:37.004Z,101822.44
2023-05-24T21:41:05.062Z,101823.84
2023-05-24T21:43:31.546Z,101821.69
2023-05-24T21:45:57.961Z,101822.44
2023-05-24T21:48:24.336Z,101824.56
2023-05-24T21:50:50.773Z,101826.72
2023-05-24T21:53:17.147Z,101828.81
2023-05-24T21:55:43.776Z,101825.94
2023-05-24T21:58:10.324Z,101830.97
2023-05-24T22:00:36.886Z,101827.34
2023-05-24T22:03:03.423Z,101838.88
2023-05-24T22:05:29.918Z,101836.56
2023-05-24T22:07:56.385Z,101838.09
2023-05-24T22:10:22.791Z,101840.97
2023-05-24T22:12:49.216Z,101837.31
2023-05-24T22:15:15.591Z,101842.34
2023-05-24T22:17:42.355Z,101852.38
2023-05-24T22:20:09.123Z,101850.97
2023-05-24T22:22:36.657Z,101846.63
2023-05-24T22:25:03.166Z,101850.25
2023-05-24T22:27:29.610Z,101856.63
2023-05-24T22:29:56.051Z,101856.63
2023-05-24T22:32:22.456Z,101847.88
2023-05-24T22:34:48.887Z,101849.25
2023-05-24T22:37:18.274Z,101844.84
2023-05-24T22:39:45.326Z,101852.13
2023-05-24T22:42:11.757Z,101837.72
2023-05-24T22:44:38.158Z,101837.59
2023-05-24T22:47:04.583Z,101843.38
2023-05-24T22:49:34.038Z,101845.50
2023-05-24T22:52:00.989Z,101841.88
2023-05-24T22:54:27.405Z,101853.41
2023-05-24T22:56:53.814Z,101846.13
2023-05-24T22:59:20.251Z,101846.13
2023-05-24T23:01:46.700Z,101845.38
2023-05-24T23:06:45.719Z,101846.13
2023-05-24T23:09:13.067Z,101844.66
2023-05-24T23:11:39.487Z,101844.66
2023-05-24T23:14:08.905Z,101837.38
2023-05-24T23:16:40.199Z,101842.38
2023-05-24T23:19:06.758Z,101844.53
2023-05-24T23:21:33.762Z,101852.44
2023-05-24T23:24:02.075Z,101846.66
2023-05-24T23:26:28.600Z,101847.41
2023-05-24T23:28:55.065Z,101837.91
2023-05-24T23:31:21.850Z,101845.16
2023-05-24T23:33:48.297Z,101849.41
2023-05-24T23:36:14.703Z,101848.66
2023-05-24T23:38:41.098Z,101842.88
2023-05-24T23:41:07.490Z,101849.41
2023-05-24T23:43:33.881Z,101848.66
2023-05-24T23:46:00.379Z,101848.66
2023-05-24T23:48:26.769Z,101857.28
2023-05-24T23:50:54.699Z,101863.69
2023-05-24T23:53:21.278Z,101866.59
2023-05-24T23:55:47.672Z,101864.31
2023-05-24T23:58:14.067Z,101860.81
